sensor_id;sensor_type;location;lat;lon;timestamp;temperature;humidity
21678;DHT22;11000;50.360;7.582;2022-12-07T00:01:28;4.70;99.90
21678;DHT22;11000;50.360;7.582;2022-12-07T00:03:51;4.70;99.90
21678;DHT22;11000;50.360;7.582;2022-12-07T00:06:14;4.70;99.90
21678;DHT22;11000;50.360;7.582;2022-12-07T00:08:35;4.80;99.90
21678;DHT22;11000;50.360;7.582;2022-12-07T00:11:01;4.70;99.90
21678;DHT22;11000;50.360;7.582;2022-12-07T00:13:22;4.70;99.90
21678;DHT22;11000;50.360;7.582;2022-12-07T00:15:43;4.70;99.90
21678;DHT22;11000;50.360;7.582;2022-12-07T00:18:03;4.70;99.90
21678;DHT22;11000;50.360;7.582;2022-12-07T00:20:24;4.70;99.90
21678;DHT22;11000;50.360;7.582;2022-12-07T00:22:44;4.70;99.90
21678;DHT22;11000;50.360;7.582;2022-12-07T00:25:05;4.70;99.90
21678;DHT22;11000;50.360;7.582;2022-12-07T00:27:27;4.70;99.90
21678;DHT22;11000;50.360;7.582;2022-12-07T00:29:47;4.60;99.90
21678;DHT22;11000;50.360;7.582;2022-12-07T00:32:08;4.70;99.90
21678;DHT22;11000;50.360;7.582;2022-12-07T00:34:29;4.70;99.90
21678;DHT22;11000;50.360;7.582;2022-12-07T00:36:50;4.70;99.90
21678;DHT22;11000;50.360;7.582;2022-12-07T00:39:10;4.60;99.90
21678;DHT22;11000;50.360;7.582;2022-12-07T00:41:31;4.70;99.90
21678;DHT22;11000;50.360;7.582;2022-12-07T00:43:52;4.60;99.90
21678;DHT22;11000;50.360;7.582;2022-12-07T00:46:14;4.60;99.90
21678;DHT22;11000;50.360;7.582;2022-12-07T00:48:35;4.70;99.90
21678;DHT22;11000;50.360;7.582;2022-12-07T00:50:56;4.70;99.90
21678;DHT22;11000;50.360;7.582;2022-12-07T00:53:17;4.60;99.90
21678;DHT22;11000;50.360;7.582;2022-12-07T00:55:37;4.60;99.90
21678;DHT22;11000;50.360;7.582;2022-12-07T00:57:58;4.60;99.90
21678;DHT22;11000;50.360;7.582;2022-12-07T01:00:18;4.60;99.90
21678;DHT22;11000;50.360;7.582;2022-12-07T01:02:39;4.60;99.90
21678;DHT22;11000;50.360;7.582;2022-12-07T01:04:59;4.60;99.90
21678;DHT22;11000;50.360;7.582;2022-12-07T01:07:20;4.60;99.90
21678;DHT22;11000;50.360;7.582;2022-12-07T01:09:41;4.60;99.90
21678;DHT22;11000;50.360;7.582;2022-12-07T01:12:01;4.50;99.90
21678;DHT22;11000;50.360;7.582;2022-12-07T01:14:23;4.60;99.90
21678;DHT22;11000;50.360;7.582;2022-12-07T01:16:43;4.60;99.90
21678;DHT22;11000;50.360;7.582;2022-12-07T01:19:04;4.60;99.90
21678;DHT22;11000;50.360;7.582;2022-12-07T01:21:27;4.50;99.90
21678;DHT22;11000;50.360;7.582;2022-12-07T01:23:49;4.50;99.90
21678;DHT22;11000;50.360;7.582;2022-12-07T01:26:14;4.60;99.90
21678;DHT22;11000;50.360;7.582;2022-12-07T01:28:35;4.60;99.90
21678;DHT22;11000;50.360;7.582;2022-12-07T01:31:18;4.50;99.90
21678;DHT22;11000;50.360;7.582;2022-12-07T01:33:39;4.60;99.90
21678;DHT22;11000;50.360;7.582;2022-12-07T01:36:05;4.60;99.90
21678;DHT22;11000;50.360;7.582;2022-12-07T01:38:26;4.60;99.90
21678;DHT22;11000;50.360;7.582;2022-12-07T01:40:55;4.60;99.90
21678;DHT22;11000;50.360;7.582;2022-12-07T01:43:17;4.70;99.90
21678;DHT22;11000;50.360;7.582;2022-12-07T01:45:40;4.70;99.90
21678;DHT22;11000;50.360;7.582;2022-12-07T01:48:01;4.70;99.90
21678;DHT22;11000;50.360;7.582;2022-12-07T01:50:26;4.70;99.90
21678;DHT22;11000;50.360;7.582;2022-12-07T01:52:49;4.60;99.90
21678;DHT22;11000;50.360;7.582;2022-12-07T01:55:13;4.60;99.90
21678;DHT22;11000;50.360;7.582;2022-12-07T01:57:37;4.60;99.90
21678;DHT22;11000;50.360;7.582;2022-12-07T02:00:00;4.60;99.90
21678;DHT22;11000;50.360;7.582;2022-12-07T02:02:27;4.70;99.90
21678;DHT22;11000;50.360;7.582;2022-12-07T02:04:49;4.70;99.90
21678;DHT22;11000;50.360;7.582;2022-12-07T02:07:11;4.60;99.90
21678;DHT22;11000;50.360;7.582;2022-12-07T02:09:32;4.70;99.90
21678;DHT22;11000;50.360;7.582;2022-12-07T02:11:54;4.60;99.90
21678;DHT22;11000;50.360;7.582;2022-12-07T02:14:15;4.60;99.90
21678;DHT22;11000;50.360;7.582;2022-12-07T02:17:01;4.60;99.90
21678;DHT22;11000;50.360;7.582;2022-12-07T02:28:07;4.70;99.90
21678;DHT22;11000;50.360;7.582;2022-12-07T02:30:32;4.70;99.90
21678;DHT22;11000;50.360;7.582;2022-12-07T02:33:15;4.70;99.90
21678;DHT22;11000;50.360;7.582;2022-12-07T02:35:44;4.70;99.90
21678;DHT22;11000;50.360;7.582;2022-12-07T02:41:25;4.70;99.90
21678;DHT22;11000;50.360;7.582;2022-12-07T02:43:52;4.60;99.90
21678;DHT22;11000;50.360;7.582;2022-12-07T02:46:17;4.70;99.90
21678;DHT22;11000;50.360;7.582;2022-12-07T02:48:39;4.60;99.90
21678;DHT22;11000;50.360;7.582;2022-12-07T02:51:01;4.70;99.90
21678;DHT22;11000;50.360;7.582;2022-12-07T02:53:35;4.70;99.90
21678;DHT22;11000;50.360;7.582;2022-12-07T02:55:56;4.70;99.90
21678;DHT22;11000;50.360;7.582;2022-12-07T02:58:36;4.70;99.90
21678;DHT22;11000;50.360;7.582;2022-12-07T03:03:40;4.70;99.90
21678;DHT22;11000;50.360;7.582;2022-12-07T03:06:09;4.70;99.90
21678;DHT22;11000;50.360;7.582;2022-12-07T03:08:56;4.70;99.90
21678;DHT22;11000;50.360;7.582;2022-12-07T03:11:47;4.70;99.90
21678;DHT22;11000;50.360;7.582;2022-12-07T03:17:07;4.70;99.90
21678;DHT22;11000;50.360;7.582;2022-12-07T03:19:26;4.70;99.90
21678;DHT22;11000;50.360;7.582;2022-12-07T03:21:57;4.70;99.90
21678;DHT22;11000;50.360;7.582;2022-12-07T03:24:22;4.70;99.90
21678;DHT22;11000;50.360;7.582;2022-12-07T03:26:48;4.70;99.90
21678;DHT22;11000;50.360;7.582;2022-12-07T03:29:14;4.70;99.90
21678;DHT22;11000;50.360;7.582;2022-12-07T03:31:44;4.70;99.90
21678;DHT22;11000;50.360;7.582;2022-12-07T03:34:14;4.70;99.90
21678;DHT22;11000;50.360;7.582;2022-12-07T03:36:57;4.70;99.90
21678;DHT22;11000;50.360;7.582;2022-12-07T03:39:55;4.70;99.90
21678;DHT22;11000;50.360;7.582;2022-12-07T03:42:11;4.70;99.90
21678;DHT22;11000;50.360;7.582;2022-12-07T03:44:33;4.70;99.90
21678;DHT22;11000;50.360;7.582;2022-12-07T03:47:34;4.80;99.90
21678;DHT22;11000;50.360;7.582;2022-12-07T03:52:39;4.80;99.90
21678;DHT22;11000;50.360;7.582;2022-12-07T03:55:24;4.80;99.90
21678;DHT22;11000;50.360;7.582;2022-12-07T03:57:50;4.80;99.90
21678;DHT22;11000;50.360;7.582;2022-12-07T04:00:12;4.80;99.90
21678;DHT22;11000;50.360;7.582;2022-12-07T04:02:34;4.80;99.90
21678;DHT22;11000;50.360;7.582;2022-12-07T04:04:56;4.80;99.90
21678;DHT22;11000;50.360;7.582;2022-12-07T04:07:16;4.70;99.90
21678;DHT22;11000;50.360;7.582;2022-12-07T04:09:37;4.80;99.90
21678;DHT22;11000;50.360;7.582;2022-12-07T04:11:57;4.70;99.90
21678;DHT22;11000;50.360;7.582;2022-12-07T04:14:18;4.80;99.90
21678;DHT22;11000;50.360;7.582;2022-12-07T04:16:38;4.80;99.90
21678;DHT22;11000;50.360;7.582;2022-12-07T04:18:59;4.80;99.90
21678;DHT22;11000;50.360;7.582;2022-12-07T04:21:19;4.80;99.90
21678;DHT22;11000;50.360;7.582;2022-12-07T04:23:40;4.80;99.90
21678;DHT22;11000;50.360;7.582;2022-12-07T04:26:00;4.80;99.90
21678;DHT22;11000;50.360;7.582;2022-12-07T04:28:21;4.80;99.90
21678;DHT22;11000;50.360;7.582;2022-12-07T04:30:41;4.80;99.90
21678;DHT22;11000;50.360;7.582;2022-12-07T04:33:02;4.80;99.90
21678;DHT22;11000;50.360;7.582;2022-12-07T04:35:22;4.80;99.90
21678;DHT22;11000;50.360;7.582;2022-12-07T04:37:43;4.80;99.90
21678;DHT22;11000;50.360;7.582;2022-12-07T04:40:04;4.80;99.90
21678;DHT22;11000;50.360;7.582;2022-12-07T04:42:25;4.80;99.90
21678;DHT22;11000;50.360;7.582;2022-12-07T04:44:45;4.80;99.90
21678;DHT22;11000;50.360;7.582;2022-12-07T04:47:06;4.80;99.90
21678;DHT22;11000;50.360;7.582;2022-12-07T04:49:26;4.80;99.90
21678;DHT22;11000;50.360;7.582;2022-12-07T04:51:47;4.80;99.90
21678;DHT22;11000;50.360;7.582;2022-12-07T04:54:08;4.80;99.90
21678;DHT22;11000;50.360;7.582;2022-12-07T04:56:29;4.70;99.90
21678;DHT22;11000;50.360;7.582;2022-12-07T04:58:50;4.80;99.90
21678;DHT22;11000;50.360;7.582;2022-12-07T05:01:12;4.70;99.90
21678;DHT22;11000;50.360;7.582;2022-12-07T05:03:32;4.80;99.90
21678;DHT22;11000;50.360;7.582;2022-12-07T05:05:53;4.80;99.90
21678;DHT22;11000;50.360;7.582;2022-12-07T05:08:13;4.70;99.90
21678;DHT22;11000;50.360;7.582;2022-12-07T05:10:34;4.80;99.90
21678;DHT22;11000;50.360;7.582;2022-12-07T05:12:54;4.70;99.90
21678;DHT22;11000;50.360;7.582;2022-12-07T05:15:15;4.70;99.90
21678;DHT22;11000;50.360;7.582;2022-12-07T05:17:36;4.70;99.90
21678;DHT22;11000;50.360;7.582;2022-12-07T05:19:56;4.70;99.90
21678;DHT22;11000;50.360;7.582;2022-12-07T05:22:17;4.70;99.90
21678;DHT22;11000;50.360;7.582;2022-12-07T05:24:37;4.70;99.90
21678;DHT22;11000;50.360;7.582;2022-12-07T05:26:58;4.70;99.90
21678;DHT22;11000;50.360;7.582;2022-12-07T05:29:18;4.70;99.90
21678;DHT22;11000;50.360;7.582;2022-12-07T05:31:39;4.70;99.90
21678;DHT22;11000;50.360;7.582;2022-12-07T05:34:00;4.70;99.90
21678;DHT22;11000;50.360;7.582;2022-12-07T05:36:20;4.70;99.90
21678;DHT22;11000;50.360;7.582;2022-12-07T05:38:41;4.70;99.90
21678;DHT22;11000;50.360;7.582;2022-12-07T05:41:03;4.70;99.90
21678;DHT22;11000;50.360;7.582;2022-12-07T05:43:24;4.70;99.90
21678;DHT22;11000;50.360;7.582;2022-12-07T05:45:44;4.70;99.90
21678;DHT22;11000;50.360;7.582;2022-12-07T05:48:05;4.80;99.90
21678;DHT22;11000;50.360;7.582;2022-12-07T05:50:26;4.80;99.90
21678;DHT22;11000;50.360;7.582;2022-12-07T05:52:48;4.70;99.90
21678;DHT22;11000;50.360;7.582;2022-12-07T05:55:08;4.80;99.90
21678;DHT22;11000;50.360;7.582;2022-12-07T05:57:29;4.70;99.90
21678;DHT22;11000;50.360;7.582;2022-12-07T05:59:49;4.80;99.90
21678;DHT22;11000;50.360;7.582;2022-12-07T06:02:12;4.80;99.90
21678;DHT22;11000;50.360;7.582;2022-12-07T06:04:36;4.80;99.90
21678;DHT22;11000;50.360;7.582;2022-12-07T06:06:57;4.80;99.90
21678;DHT22;11000;50.360;7.582;2022-12-07T06:09:18;4.80;99.90
21678;DHT22;11000;50.360;7.582;2022-12-07T06:11:40;4.80;99.90
21678;DHT22;11000;50.360;7.582;2022-12-07T06:14:19;4.80;99.90
21678;DHT22;11000;50.360;7.582;2022-12-07T06:16:40;4.80;99.90
21678;DHT22;11000;50.360;7.582;2022-12-07T06:19:00;4.90;99.90
21678;DHT22;11000;50.360;7.582;2022-12-07T06:21:21;4.80;99.90
21678;DHT22;11000;50.360;7.582;2022-12-07T06:23:41;4.80;99.90
21678;DHT22;11000;50.360;7.582;2022-12-07T06:26:02;4.90;99.90
21678;DHT22;11000;50.360;7.582;2022-12-07T06:28:22;4.90;99.90
21678;DHT22;11000;50.360;7.582;2022-12-07T06:30:43;4.90;99.90
21678;DHT22;11000;50.360;7.582;2022-12-07T06:33:03;4.90;99.90
21678;DHT22;11000;50.360;7.582;2022-12-07T06:35:24;4.90;99.90
21678;DHT22;11000;50.360;7.582;2022-12-07T06:37:44;4.80;99.90
21678;DHT22;11000;50.360;7.582;2022-12-07T06:40:05;4.80;99.90
21678;DHT22;11000;50.360;7.582;2022-12-07T06:42:26;4.80;99.90
21678;DHT22;11000;50.360;7.582;2022-12-07T06:44:46;4.80;99.90
21678;DHT22;11000;50.360;7.582;2022-12-07T06:47:08;4.80;99.90
21678;DHT22;11000;50.360;7.582;2022-12-07T06:49:29;4.80;99.90
21678;DHT22;11000;50.360;7.582;2022-12-07T06:51:50;4.80;99.90
21678;DHT22;11000;50.360;7.582;2022-12-07T06:54:11;4.80;99.90
21678;DHT22;11000;50.360;7.582;2022-12-07T06:56:32;4.80;99.90
21678;DHT22;11000;50.360;7.582;2022-12-07T06:58:53;4.80;99.90
21678;DHT22;11000;50.360;7.582;2022-12-07T07:01:15;4.80;99.90
21678;DHT22;11000;50.360;7.582;2022-12-07T07:03:36;4.80;99.90
21678;DHT22;11000;50.360;7.582;2022-12-07T07:05:56;4.80;99.90
21678;DHT22;11000;50.360;7.582;2022-12-07T07:08:17;4.80;99.90
21678;DHT22;11000;50.360;7.582;2022-12-07T07:10:38;4.90;99.90
21678;DHT22;11000;50.360;7.582;2022-12-07T07:12:58;4.90;99.90
21678;DHT22;11000;50.360;7.582;2022-12-07T07:15:19;5.00;99.90
21678;DHT22;11000;50.360;7.582;2022-12-07T07:17:40;5.00;99.90
21678;DHT22;11000;50.360;7.582;2022-12-07T07:20:00;5.00;99.90
21678;DHT22;11000;50.360;7.582;2022-12-07T07:22:21;5.00;99.90
21678;DHT22;11000;50.360;7.582;2022-12-07T07:24:41;5.00;99.90
21678;DHT22;11000;50.360;7.582;2022-12-07T07:27:02;5.00;99.90
21678;DHT22;11000;50.360;7.582;2022-12-07T07:29:22;5.00;99.90
21678;DHT22;11000;50.360;7.582;2022-12-07T07:31:43;5.10;99.90
21678;DHT22;11000;50.360;7.582;2022-12-07T07:34:04;5.00;99.90
21678;DHT22;11000;50.360;7.582;2022-12-07T07:36:24;5.00;99.90
21678;DHT22;11000;50.360;7.582;2022-12-07T07:38:45;5.00;99.90
21678;DHT22;11000;50.360;7.582;2022-12-07T07:41:05;5.10;99.90
21678;DHT22;11000;50.360;7.582;2022-12-07T07:43:26;5.10;99.90
21678;DHT22;11000;50.360;7.582;2022-12-07T07:45:46;5.20;99.90
21678;DHT22;11000;50.360;7.582;2022-12-07T07:48:07;5.20;99.90
21678;DHT22;11000;50.360;7.582;2022-12-07T07:50:27;5.30;99.90
21678;DHT22;11000;50.360;7.582;2022-12-07T07:52:48;5.30;99.90
21678;DHT22;11000;50.360;7.582;2022-12-07T07:55:10;5.30;99.90
21678;DHT22;11000;50.360;7.582;2022-12-07T07:57:30;5.30;99.90
21678;DHT22;11000;50.360;7.582;2022-12-07T07:59:51;5.30;99.90
21678;DHT22;11000;50.360;7.582;2022-12-07T08:02:17;5.30;99.90
21678;DHT22;11000;50.360;7.582;2022-12-07T08:04:37;5.30;99.90
21678;DHT22;11000;50.360;7.582;2022-12-07T08:06:58;5.30;99.90
21678;DHT22;11000;50.360;7.582;2022-12-07T08:09:33;5.30;99.90
21678;DHT22;11000;50.360;7.582;2022-12-07T08:11:53;5.30;99.90
21678;DHT22;11000;50.360;7.582;2022-12-07T08:14:14;5.30;99.90
21678;DHT22;11000;50.360;7.582;2022-12-07T08:16:34;5.30;99.90
21678;DHT22;11000;50.360;7.582;2022-12-07T08:18:55;5.30;99.90
21678;DHT22;11000;50.360;7.582;2022-12-07T08:21:16;5.30;99.90
21678;DHT22;11000;50.360;7.582;2022-12-07T08:23:37;5.40;99.90
21678;DHT22;11000;50.360;7.582;2022-12-07T08:26:06;5.30;99.90
21678;DHT22;11000;50.360;7.582;2022-12-07T08:28:28;5.30;99.90
21678;DHT22;11000;50.360;7.582;2022-12-07T08:30:48;5.30;99.90
21678;DHT22;11000;50.360;7.582;2022-12-07T08:33:10;5.40;99.90
21678;DHT22;11000;50.360;7.582;2022-12-07T08:35:33;5.40;99.90
21678;DHT22;11000;50.360;7.582;2022-12-07T08:37:56;5.40;99.90
21678;DHT22;11000;50.360;7.582;2022-12-07T08:40:18;5.40;99.90
21678;DHT22;11000;50.360;7.582;2022-12-07T08:42:39;5.40;99.90
21678;DHT22;11000;50.360;7.582;2022-12-07T08:45:00;5.40;99.90
21678;DHT22;11000;50.360;7.582;2022-12-07T08:47:20;5.50;99.90
21678;DHT22;11000;50.360;7.582;2022-12-07T08:49:43;5.50;99.90
21678;DHT22;11000;50.360;7.582;2022-12-07T08:52:06;5.50;99.90
21678;DHT22;11000;50.360;7.582;2022-12-07T08:54:28;5.50;99.90
21678;DHT22;11000;50.360;7.582;2022-12-07T08:56:49;5.50;99.90
21678;DHT22;11000;50.360;7.582;2022-12-07T08:59:14;5.60;99.90
21678;DHT22;11000;50.360;7.582;2022-12-07T09:01:36;5.60;99.90
21678;DHT22;11000;50.360;7.582;2022-12-07T09:03:56;5.60;99.90
21678;DHT22;11000;50.360;7.582;2022-12-07T09:06:17;5.60;99.90
21678;DHT22;11000;50.360;7.582;2022-12-07T09:08:41;5.60;99.90
21678;DHT22;11000;50.360;7.582;2022-12-07T09:11:02;5.50;99.90
21678;DHT22;11000;50.360;7.582;2022-12-07T09:13:23;5.50;99.90
21678;DHT22;11000;50.360;7.582;2022-12-07T09:15:43;5.50;99.90
21678;DHT22;11000;50.360;7.582;2022-12-07T09:18:04;5.50;99.90
21678;DHT22;11000;50.360;7.582;2022-12-07T09:20:25;5.60;99.90
21678;DHT22;11000;50.360;7.582;2022-12-07T09:22:45;5.60;99.90
21678;DHT22;11000;50.360;7.582;2022-12-07T09:25:06;5.60;99.90
21678;DHT22;11000;50.360;7.582;2022-12-07T09:27:28;5.70;99.90
21678;DHT22;11000;50.360;7.582;2022-12-07T09:29:48;5.70;99.90
21678;DHT22;11000;50.360;7.582;2022-12-07T09:32:09;5.80;99.90
21678;DHT22;11000;50.360;7.582;2022-12-07T09:34:33;5.70;99.90
21678;DHT22;11000;50.360;7.582;2022-12-07T09:36:53;5.60;99.90
21678;DHT22;11000;50.360;7.582;2022-12-07T09:39:14;5.60;99.90
21678;DHT22;11000;50.360;7.582;2022-12-07T09:41:38;5.60;99.90
21678;DHT22;11000;50.360;7.582;2022-12-07T09:44:11;5.50;99.90
21678;DHT22;11000;50.360;7.582;2022-12-07T09:46:39;5.50;99.90
21678;DHT22;11000;50.360;7.582;2022-12-07T09:49:00;5.50;99.90
21678;DHT22;11000;50.360;7.582;2022-12-07T09:51:23;5.50;99.90
21678;DHT22;11000;50.360;7.582;2022-12-07T09:53:44;5.60;99.90
21678;DHT22;11000;50.360;7.582;2022-12-07T09:56:06;5.60;99.90
21678;DHT22;11000;50.360;7.582;2022-12-07T09:58:28;5.60;99.90
21678;DHT22;11000;50.360;7.582;2022-12-07T10:00:57;5.60;99.90
21678;DHT22;11000;50.360;7.582;2022-12-07T10:03:19;5.50;99.90
21678;DHT22;11000;50.360;7.582;2022-12-07T10:05:44;5.50;99.90
21678;DHT22;11000;50.360;7.582;2022-12-07T10:08:07;5.50;99.90
21678;DHT22;11000;50.360;7.582;2022-12-07T10:10:34;5.50;99.90
21678;DHT22;11000;50.360;7.582;2022-12-07T10:12:58;5.60;99.90
21678;DHT22;11000;50.360;7.582;2022-12-07T10:15:18;5.60;99.90
21678;DHT22;11000;50.360;7.582;2022-12-07T10:17:41;5.60;99.90
21678;DHT22;11000;50.360;7.582;2022-12-07T10:20:23;5.60;99.90
21678;DHT22;11000;50.360;7.582;2022-12-07T10:22:55;5.60;99.90
21678;DHT22;11000;50.360;7.582;2022-12-07T10:25:21;5.70;99.90
21678;DHT22;11000;50.360;7.582;2022-12-07T10:27:42;5.70;99.90
21678;DHT22;11000;50.360;7.582;2022-12-07T10:30:12;5.70;99.90
21678;DHT22;11000;50.360;7.582;2022-12-07T10:32:35;5.80;99.90
21678;DHT22;11000;50.360;7.582;2022-12-07T10:35:29;5.90;99.90
21678;DHT22;11000;50.360;7.582;2022-12-07T10:37:52;6.00;99.90
21678;DHT22;11000;50.360;7.582;2022-12-07T10:40:34;6.10;99.90
21678;DHT22;11000;50.360;7.582;2022-12-07T10:43:20;6.20;99.90
21678;DHT22;11000;50.360;7.582;2022-12-07T10:48:23;6.20;99.90
21678;DHT22;11000;50.360;7.582;2022-12-07T10:53:59;6.40;99.90
21678;DHT22;11000;50.360;7.582;2022-12-07T10:56:38;6.50;99.90
21678;DHT22;11000;50.360;7.582;2022-12-07T11:02:15;6.80;99.90
21678;DHT22;11000;50.360;7.582;2022-12-07T11:05:09;6.90;99.90
21678;DHT22;11000;50.360;7.582;2022-12-07T11:07:47;6.90;99.90
21678;DHT22;11000;50.360;7.582;2022-12-07T11:10:54;6.90;99.90
21678;DHT22;11000;50.360;7.582;2022-12-07T11:13:23;6.90;99.90
21678;DHT22;11000;50.360;7.582;2022-12-07T11:16:29;6.90;99.90
21678;DHT22;11000;50.360;7.582;2022-12-07T11:24:10;6.70;99.90
21678;DHT22;11000;50.360;7.582;2022-12-07T11:29:29;6.70;99.90
21678;DHT22;11000;50.360;7.582;2022-12-07T11:34:47;6.80;99.90
21678;DHT22;11000;50.360;7.582;2022-12-07T11:37:13;6.90;99.90
21678;DHT22;11000;50.360;7.582;2022-12-07T11:39:41;6.90;99.90
21678;DHT22;11000;50.360;7.582;2022-12-07T11:42:08;7.00;99.90
21678;DHT22;11000;50.360;7.582;2022-12-07T11:44:55;6.90;99.90
21678;DHT22;11000;50.360;7.582;2022-12-07T11:50:05;6.80;99.90
21678;DHT22;11000;50.360;7.582;2022-12-07T11:52:57;6.90;99.90
21678;DHT22;11000;50.360;7.582;2022-12-07T11:55:26;6.90;99.90
21678;DHT22;11000;50.360;7.582;2022-12-07T11:57:54;7.00;99.90
21678;DHT22;11000;50.360;7.582;2022-12-07T12:00:19;7.00;99.90
21678;DHT22;11000;50.360;7.582;2022-12-07T12:02:52;6.90;99.90
21678;DHT22;11000;50.360;7.582;2022-12-07T12:05:18;6.80;99.90
21678;DHT22;11000;50.360;7.582;2022-12-07T12:07:43;6.80;99.90
21678;DHT22;11000;50.360;7.582;2022-12-07T12:13:33;6.60;99.90
21678;DHT22;11000;50.360;7.582;2022-12-07T12:16:44;6.50;99.90
21678;DHT22;11000;50.360;7.582;2022-12-07T12:19:22;6.30;99.90
21678;DHT22;11000;50.360;7.582;2022-12-07T12:21:46;6.30;99.90
21678;DHT22;11000;50.360;7.582;2022-12-07T12:24:16;6.40;99.90
21678;DHT22;11000;50.360;7.582;2022-12-07T12:26:38;6.40;99.90
21678;DHT22;11000;50.360;7.582;2022-12-07T12:29:02;6.60;99.90
21678;DHT22;11000;50.360;7.582;2022-12-07T12:33:54;6.70;99.90
21678;DHT22;11000;50.360;7.582;2022-12-07T12:43:58;7.10;99.90
21678;DHT22;11000;50.360;7.582;2022-12-07T12:49:14;7.10;99.90
21678;DHT22;11000;50.360;7.582;2022-12-07T12:51:39;6.80;99.90
21678;DHT22;11000;50.360;7.582;2022-12-07T12:54:15;6.60;99.90
21678;DHT22;11000;50.360;7.582;2022-12-07T12:56:46;6.60;99.90
21678;DHT22;11000;50.360;7.582;2022-12-07T12:59:23;6.40;99.90
21678;DHT22;11000;50.360;7.582;2022-12-07T13:01:46;6.30;99.90
21678;DHT22;11000;50.360;7.582;2022-12-07T13:06:45;6.30;99.90
21678;DHT22;11000;50.360;7.582;2022-12-07T13:09:19;6.20;99.90
21678;DHT22;11000;50.360;7.582;2022-12-07T13:11:44;6.20;99.90
21678;DHT22;11000;50.360;7.582;2022-12-07T13:17:00;6.20;99.90
21678;DHT22;11000;50.360;7.582;2022-12-07T13:19:53;6.20;99.90
21678;DHT22;11000;50.360;7.582;2022-12-07T13:25:11;6.30;99.90
21678;DHT22;11000;50.360;7.582;2022-12-07T13:27:34;6.20;99.90
21678;DHT22;11000;50.360;7.582;2022-12-07T13:29:56;6.20;99.90
21678;DHT22;11000;50.360;7.582;2022-12-07T13:32:27;6.20;99.90
21678;DHT22;11000;50.360;7.582;2022-12-07T13:34:48;6.10;99.90
21678;DHT22;11000;50.360;7.582;2022-12-07T13:37:24;6.10;99.90
21678;DHT22;11000;50.360;7.582;2022-12-07T13:39:50;6.00;99.90
21678;DHT22;11000;50.360;7.582;2022-12-07T13:42:35;5.90;99.90
21678;DHT22;11000;50.360;7.582;2022-12-07T13:44:57;5.90;99.90
21678;DHT22;11000;50.360;7.582;2022-12-07T13:47:30;6.00;99.90
21678;DHT22;11000;50.360;7.582;2022-12-07T13:49:54;6.10;99.90
21678;DHT22;11000;50.360;7.582;2022-12-07T13:52:24;6.20;99.90
21678;DHT22;11000;50.360;7.582;2022-12-07T13:54:47;6.20;99.90
21678;DHT22;11000;50.360;7.582;2022-12-07T13:57:09;6.20;99.90
21678;DHT22;11000;50.360;7.582;2022-12-07T13:59:29;6.20;99.90
21678;DHT22;11000;50.360;7.582;2022-12-07T14:01:53;6.20;99.90
21678;DHT22;11000;50.360;7.582;2022-12-07T14:04:29;6.20;99.90
21678;DHT22;11000;50.360;7.582;2022-12-07T14:06:51;6.20;99.90
21678;DHT22;11000;50.360;7.582;2022-12-07T14:09:23;6.10;99.90
21678;DHT22;11000;50.360;7.582;2022-12-07T14:11:45;6.00;99.90
21678;DHT22;11000;50.360;7.582;2022-12-07T14:14:14;5.90;99.90
21678;DHT22;11000;50.360;7.582;2022-12-07T14:16:37;5.90;99.90
21678;DHT22;11000;50.360;7.582;2022-12-07T14:19:01;5.80;99.90
21678;DHT22;11000;50.360;7.582;2022-12-07T14:21:25;5.80;99.90
21678;DHT22;11000;50.360;7.582;2022-12-07T14:26:31;5.70;99.90
21678;DHT22;11000;50.360;7.582;2022-12-07T14:28:52;5.70;99.90
21678;DHT22;11000;50.360;7.582;2022-12-07T14:31:23;5.60;99.90
21678;DHT22;11000;50.360;7.582;2022-12-07T14:33:44;5.60;99.90
21678;DHT22;11000;50.360;7.582;2022-12-07T14:36:05;5.60;99.90
21678;DHT22;11000;50.360;7.582;2022-12-07T14:38:26;5.60;99.90
21678;DHT22;11000;50.360;7.582;2022-12-07T14:40:46;5.60;99.90
21678;DHT22;11000;50.360;7.582;2022-12-07T14:43:15;5.60;99.90
21678;DHT22;11000;50.360;7.582;2022-12-07T14:45:37;5.60;99.90
21678;DHT22;11000;50.360;7.582;2022-12-07T14:47:57;5.60;99.90
21678;DHT22;11000;50.360;7.582;2022-12-07T14:50:19;5.60;99.90
21678;DHT22;11000;50.360;7.582;2022-12-07T14:52:42;5.70;99.90
21678;DHT22;11000;50.360;7.582;2022-12-07T14:55:04;5.70;99.90
21678;DHT22;11000;50.360;7.582;2022-12-07T14:57:24;5.80;99.90
21678;DHT22;11000;50.360;7.582;2022-12-07T14:59:45;5.70;99.90
21678;DHT22;11000;50.360;7.582;2022-12-07T15:02:06;5.80;99.90
21678;DHT22;11000;50.360;7.582;2022-12-07T15:04:27;5.80;99.90
21678;DHT22;11000;50.360;7.582;2022-12-07T15:06:58;5.90;99.90
21678;DHT22;11000;50.360;7.582;2022-12-07T15:09:19;5.90;99.90
21678;DHT22;11000;50.360;7.582;2022-12-07T15:11:40;5.90;99.90
21678;DHT22;11000;50.360;7.582;2022-12-07T15:14:00;5.90;99.90
21678;DHT22;11000;50.360;7.582;2022-12-07T15:16:31;5.90;99.90
21678;DHT22;11000;50.360;7.582;2022-12-07T15:18:52;5.80;99.90
21678;DHT22;11000;50.360;7.582;2022-12-07T15:21:14;5.80;99.90
21678;DHT22;11000;50.360;7.582;2022-12-07T15:23:34;5.70;99.90
21678;DHT22;11000;50.360;7.582;2022-12-07T15:25:55;5.60;99.90
21678;DHT22;11000;50.360;7.582;2022-12-07T15:28:15;5.60;99.90
21678;DHT22;11000;50.360;7.582;2022-12-07T15:30:40;5.50;99.90
21678;DHT22;11000;50.360;7.582;2022-12-07T15:33:03;5.50;99.90
21678;DHT22;11000;50.360;7.582;2022-12-07T15:35:23;5.60;99.90
21678;DHT22;11000;50.360;7.582;2022-12-07T15:37:44;5.50;99.90
21678;DHT22;11000;50.360;7.582;2022-12-07T15:40:05;5.40;99.90
21678;DHT22;11000;50.360;7.582;2022-12-07T15:42:26;5.40;99.90
21678;DHT22;11000;50.360;7.582;2022-12-07T15:44:46;5.40;99.90
21678;DHT22;11000;50.360;7.582;2022-12-07T15:47:25;5.40;99.90
21678;DHT22;11000;50.360;7.582;2022-12-07T15:49:46;5.30;99.90
21678;DHT22;11000;50.360;7.582;2022-12-07T15:52:07;5.30;99.90
21678;DHT22;11000;50.360;7.582;2022-12-07T15:54:28;5.30;99.90
21678;DHT22;11000;50.360;7.582;2022-12-07T15:56:49;5.30;99.90
21678;DHT22;11000;50.360;7.582;2022-12-07T15:59:10;5.30;99.90
21678;DHT22;11000;50.360;7.582;2022-12-07T16:01:40;5.30;99.90
21678;DHT22;11000;50.360;7.582;2022-12-07T16:04:00;5.30;99.90
21678;DHT22;11000;50.360;7.582;2022-12-07T16:06:21;5.30;99.90
21678;DHT22;11000;50.360;7.582;2022-12-07T16:08:43;5.30;99.90
21678;DHT22;11000;50.360;7.582;2022-12-07T16:11:06;5.30;99.90
21678;DHT22;11000;50.360;7.582;2022-12-07T16:13:26;5.30;99.90
21678;DHT22;11000;50.360;7.582;2022-12-07T16:16:03;5.30;99.90
21678;DHT22;11000;50.360;7.582;2022-12-07T16:18:24;5.30;99.90
21678;DHT22;11000;50.360;7.582;2022-12-07T16:20:48;5.20;99.90
21678;DHT22;11000;50.360;7.582;2022-12-07T16:23:08;5.20;99.90
21678;DHT22;11000;50.360;7.582;2022-12-07T16:25:29;5.20;99.90
21678;DHT22;11000;50.360;7.582;2022-12-07T16:27:51;5.20;99.90
21678;DHT22;11000;50.360;7.582;2022-12-07T16:30:13;5.20;99.90
21678;DHT22;11000;50.360;7.582;2022-12-07T16:32:34;5.20;99.90
21678;DHT22;11000;50.360;7.582;2022-12-07T16:34:55;5.20;99.90
21678;DHT22;11000;50.360;7.582;2022-12-07T16:37:15;5.20;99.90